sensor_id;sensor_type;location;lat;lon;timestamp;pressure;altitude;pressure_sealevel;temperature;humidity
43838;BME280;65998;46.256;7.534;2024-01-15T00:00:49;85877.16;;;2.86;95.00
43838;BME280;65998;46.256;7.534;2024-01-15T00:03:34;85869.03;;;2.86;92.75
43838;BME280;65998;46.256;7.534;2024-01-15T00:06:00;85859.53;;;2.79;92.20
43838;BME280;65998;46.256;7.534;2024-01-15T00:08:26;85860.91;;;2.78;94.68
43838;BME280;65998;46.256;7.534;2024-01-15T00:10:52;85860.22;;;2.71;94.89
43838;BME280;65998;46.256;7.534;2024-01-15T00:13:18;85867.69;;;2.67;95.66
43838;BME280;65998;46.256;7.534;2024-01-15T00:15:44;85856.19;;;2.62;97.07
43838;BME280;65998;46.256;7.534;2024-01-15T00:18:09;85862.28;;;2.61;98.54
43838;BME280;65998;46.256;7.534;2024-01-15T00:20:35;85869.06;;;2.58;100.00
43838;BME280;65998;46.256;7.534;2024-01-15T00:23:01;85862.97;;;2.55;100.00
43838;BME280;65998;46.256;7.534;2024-01-15T00:25:27;85860.94;;;2.60;100.00
43838;BME280;65998;46.256;7.534;2024-01-15T00:27:53;85862.28;;;2.59;100.00
43838;BME280;65998;46.256;7.534;2024-01-15T00:30:19;85875.16;;;2.58;100.00
43838;BME280;65998;46.256;7.534;2024-01-15T00:32:44;85863.63;;;2.62;100.00
43838;BME280;65998;46.256;7.534;2024-01-15T00:35:10;85864.31;;;2.62;100.00
43838;BME280;65998;46.256;7.534;2024-01-15T00:37:36;85865.00;;;2.63;100.00
43838;BME280;65998;46.256;7.534;2024-01-15T00:40:02;85861.59;;;2.60;100.00
43838;BME280;65998;46.256;7.534;2024-01-15T00:42:28;85852.13;;;2.51;100.00
43838;BME280;65998;46.256;7.534;2024-01-15T00:44:54;85854.16;;;2.48;100.00
43838;BME280;65998;46.256;7.534;2024-01-15T00:47:20;85853.47;;;2.50;100.00
43838;BME280;65998;46.256;7.534;2024-01-15T00:49:46;85851.44;;;2.46;100.00
43838;BME280;65998;46.256;7.534;2024-01-15T00:52:12;85842.63;;;2.44;100.00
43838;BME280;65998;46.256;7.534;2024-01-15T00:54:38;85842.66;;;2.32;100.00
43838;BME280;65998;46.256;7.534;2024-01-15T00:57:03;85835.19;;;2.26;100.00
43838;BME280;65998;46.256;7.534;2024-01-15T00:59:29;85828.41;;;2.25;100.00
43838;BME280;65998;46.256;7.534;2024-01-15T01:01:55;85825.03;;;2.29;100.00
43838;BME280;65998;46.256;7.534;2024-01-15T01:04:21;85819.59;;;2.27;100.00
43838;BME280;65998;46.256;7.534;2024-01-15T01:06:47;85815.53;;;2.32;100.00
43838;BME280;65998;46.256;7.534;2024-01-15T01:09:13;85821.63;;;2.32;100.00
43838;BME280;65998;46.256;7.534;2024-01-15T01:11:38;85816.22;;;2.30;100.00
43838;BME280;65998;46.256;7.534;2024-01-15T01:14:05;85814.19;;;2.22;100.00
43838;BME280;65998;46.256;7.534;2024-01-15T01:16:31;85813.50;;;2.18;100.00
43838;BME280;65998;46.256;7.534;2024-01-15T01:18:57;85820.28;;;2.09;100.00
43838;BME280;65998;46.256;7.534;2024-01-15T01:21:22;85808.75;;;2.00;100.00
43838;BME280;65998;46.256;7.534;2024-01-15T01:23:48;85823.66;;;2.03;100.00
43838;BME280;65998;46.256;7.534;2024-01-15T01:26:17;85813.50;;;1.96;100.00
43838;BME280;65998;46.256;7.534;2024-01-15T01:28:43;85810.09;;;1.87;100.00
43838;BME280;65998;46.256;7.534;2024-01-15T01:31:09;85803.34;;;1.86;100.00
43838;BME280;65998;46.256;7.534;2024-01-15T01:33:34;85803.31;;;1.82;100.00
43838;BME280;65998;46.256;7.534;2024-01-15T01:36:00;85804.00;;;1.82;100.00
43838;BME280;65998;46.256;7.534;2024-01-15T01:38:26;85801.97;;;1.87;100.00
43838;BME280;65998;46.256;7.534;2024-01-15T01:40:52;85800.63;;;1.92;100.00
43838;BME280;65998;46.256;7.534;2024-01-15T01:43:18;85790.47;;;1.97;100.00
43838;BME280;65998;46.256;7.534;2024-01-15T01:45:43;85788.44;;;2.03;100.00
43838;BME280;65998;46.256;7.534;2024-01-15T01:48:09;85774.88;;;2.01;100.00
43838;BME280;65998;46.256;7.534;2024-01-15T01:50:35;85770.81;;;1.98;100.00
43838;BME280;65998;46.256;7.534;2024-01-15T01:53:02;85770.81;;;1.96;100.00
43838;BME280;65998;46.256;7.534;2024-01-15T01:55:29;85760.66;;;1.95;100.00
43838;BME280;65998;46.256;7.534;2024-01-15T01:57:56;85763.38;;;1.88;100.00
43838;BME280;65998;46.256;7.534;2024-01-15T02:00:22;85755.94;;;1.91;100.00
43838;BME280;65998;46.256;7.534;2024-01-15T02:02:49;85749.16;;;1.96;100.00
43838;BME280;65998;46.256;7.534;2024-01-15T02:05:18;85747.13;;;2.05;100.00
43838;BME280;65998;46.256;7.534;2024-01-15T02:07:44;85743.72;;;2.06;100.00
43838;BME280;65998;46.256;7.534;2024-01-15T02:10:10;85745.75;;;2.08;100.00
43838;BME280;65998;46.256;7.534;2024-01-15T02:12:36;85747.09;;;2.07;100.00
43838;BME280;65998;46.256;7.534;2024-01-15T02:15:02;85757.28;;;1.94;100.00
43838;BME280;65998;46.256;7.534;2024-01-15T02:17:28;85749.16;;;1.86;100.00
43838;BME280;65998;46.256;7.534;2024-01-15T02:19:54;85746.44;;;1.84;100.00
43838;BME280;65998;46.256;7.534;2024-01-15T02:22:20;85749.84;;;1.76;100.00
43838;BME280;65998;46.256;7.534;2024-01-15T02:24:46;85741.72;;;1.80;100.00
43838;BME280;65998;46.256;7.534;2024-01-15T02:27:12;85744.41;;;1.86;100.00
43838;BME280;65998;46.256;7.534;2024-01-15T02:29:38;85741.03;;;1.94;100.00
43838;BME280;65998;46.256;7.534;2024-01-15T02:32:05;85748.47;;;2.02;100.00
43838;BME280;65998;46.256;7.534;2024-01-15T02:34:33;85751.84;;;2.06;100.00
43838;BME280;65998;46.256;7.534;2024-01-15T02:37:00;85747.78;;;2.05;100.00
43838;BME280;65998;46.256;7.534;2024-01-15T02:39:25;85747.78;;;2.05;100.00
43838;BME280;65998;46.256;7.534;2024-01-15T02:41:51;85745.75;;;2.06;100.00
43838;BME280;65998;46.256;7.534;2024-01-15T02:44:17;85741.69;;;2.03;100.00
43838;BME280;65998;46.256;7.534;2024-01-15T02:46:43;85744.41;;;1.90;100.00
43838;BME280;65998;46.256;7.534;2024-01-15T02:49:09;85749.84;;;1.88;100.00
43838;BME280;65998;46.256;7.534;2024-01-15T02:51:35;85752.53;;;1.86;100.00
43838;BME280;65998;46.256;7.534;2024-01-15T02:54:00;85752.53;;;1.78;100.00
43838;BME280;65998;46.256;7.534;2024-01-15T02:56:26;85757.97;;;1.60;100.00
43838;BME280;65998;46.256;7.534;2024-01-15T02:58:52;85760.00;;;1.55;100.00
43838;BME280;65998;46.256;7.534;2024-01-15T03:01:19;85765.41;;;1.49;100.00
43838;BME280;65998;46.256;7.534;2024-01-15T03:03:44;85757.25;;;1.31;100.00
43838;BME280;65998;46.256;7.534;2024-01-15T03:06:10;85776.88;;;1.34;100.00
43838;BME280;65998;46.256;7.534;2024-01-15T03:08:36;85770.78;;;1.31;100.00
43838;BME280;65998;46.256;7.534;2024-01-15T03:11:02;85774.84;;;1.32;100.00
43838;BME280;65998;46.256;7.534;2024-01-15T03:13:28;85775.50;;;1.20;100.00
43838;BME280;65998;46.256;7.534;2024-01-15T03:15:54;85782.25;;;1.15;100.00
43838;BME280;65998;46.256;7.534;2024-01-15T03:18:19;85785.56;;;1.04;100.00
43838;BME280;65998;46.256;7.534;2024-01-15T03:20:45;85794.34;;;0.94;100.00
43838;BME280;65998;46.256;7.534;2024-01-15T03:23:11;85789.56;;;0.86;100.00
43838;BME280;65998;46.256;7.534;2024-01-15T03:25:37;85784.13;;;0.74;100.00
43838;BME280;65998;46.256;7.534;2024-01-15T03:28:03;85782.72;;;0.61;100.00
43838;BME280;65998;46.256;7.534;2024-01-15T03:30:29;85786.09;;;0.63;100.00
43838;BME280;65998;46.256;7.534;2024-01-15T03:32:54;85777.34;;;0.73;100.00
43838;BME280;65998;46.256;7.534;2024-01-15T03:35:20;85773.31;;;0.80;100.00
43838;BME280;65998;46.256;7.534;2024-01-15T03:37:46;85765.91;;;0.81;100.00
43838;BME280;65998;46.256;7.534;2024-01-15T03:40:12;85748.31;;;0.82;100.00
43838;BME280;65998;46.256;7.534;2024-01-15T03:42:38;85744.28;;;0.87;100.00
43838;BME280;65998;46.256;7.534;2024-01-15T03:45:04;85734.81;;;0.84;100.00
43838;BME280;65998;46.256;7.534;2024-01-15T03:47:30;85756.47;;;0.90;100.00
43838;BME280;65998;46.256;7.534;2024-01-15T03:49:56;85734.84;;;0.94;100.00
43838;BME280;65998;46.256;7.534;2024-01-15T03:52:22;85738.88;;;0.91;100.00
43838;BME280;65998;46.256;7.534;2024-01-15T03:54:47;85736.84;;;0.83;100.00
43838;BME280;65998;46.256;7.534;2024-01-15T03:57:13;85735.50;;;0.88;100.00
43838;BME280;65998;46.256;7.534;2024-01-15T03:59:40;85744.31;;;0.97;100.00
43838;BME280;65998;46.256;7.534;2024-01-15T04:02:06;85742.94;;;0.96;100.00
43838;BME280;65998;46.256;7.534;2024-01-15T04:04:32;85744.31;;;0.97;100.00
43838;BME280;65998;46.256;7.534;2024-01-15T04:06:58;85731.44;;;0.87;100.00
43838;BME280;65998;46.256;7.534;2024-01-15T04:09:24;85736.13;;;0.73;100.00
43838;BME280;65998;46.256;7.534;2024-01-15T04:11:50;85744.91;;;0.69;100.00
43838;BME280;65998;46.256;7.534;2024-01-15T04:14:16;85750.97;;;0.70;100.00
43838;BME280;65998;46.256;7.534;2024-01-15T04:16:41;85747.59;;;0.67;100.00
43838;BME280;65998;46.256;7.534;2024-01-15T04:19:07;85737.44;;;0.66;100.00
43838;BME280;65998;46.256;7.534;2024-01-15T04:21:33;85736.09;;;0.62;100.00
43838;BME280;65998;46.256;7.534;2024-01-15T04:23:59;85723.91;;;0.57;100.00
43838;BME280;65998;46.256;7.534;2024-01-15T04:26:25;85723.22;;;0.53;100.00
43838;BME280;65998;46.256;7.534;2024-01-15T04:28:51;85723.88;;;0.49;100.00
43838;BME280;65998;46.256;7.534;2024-01-15T04:31:25;85729.28;;;0.51;100.00
43838;BME280;65998;46.256;7.534;2024-01-15T04:33:52;85728.59;;;0.43;100.00
43838;BME280;65998;46.256;7.534;2024-01-15T04:36:18;85721.13;;;0.39;100.00
43838;BME280;65998;46.256;7.534;2024-01-15T04:38:44;85727.88;;;0.38;100.00
43838;BME280;65998;46.256;7.534;2024-01-15T04:41:13;85729.94;;;0.44;100.00
43838;BME280;65998;46.256;7.534;2024-01-15T04:43:40;85718.47;;;0.47;100.00
43838;BME280;65998;46.256;7.534;2024-01-15T04:46:06;85732.66;;;0.50;100.00
43838;BME280;65998;46.256;7.534;2024-01-15T04:48:32;85727.25;;;0.46;100.00
43838;BME280;65998;46.256;7.534;2024-01-15T04:50:58;85725.16;;;0.34;100.00
43838;BME280;65998;46.256;7.534;2024-01-15T04:53:24;85725.16;;;0.28;100.00
43838;BME280;65998;46.256;7.534;2024-01-15T04:55:50;85726.47;;;0.21;100.00
43838;BME280;65998;46.256;7.534;2024-01-15T04:58:16;85739.28;;;0.20;100.00
43838;BME280;65998;46.256;7.534;2024-01-15T05:00:41;85723.75;;;0.21;100.00
43838;BME280;65998;46.256;7.534;2024-01-15T05:03:07;85725.81;;;0.26;100.00
43838;BME280;65998;46.256;7.534;2024-01-15T05:05:33;85731.91;;;0.31;100.00
43838;BME280;65998;46.256;7.534;2024-01-15T05:07:59;85731.91;;;0.33;100.00
43838;BME280;65998;46.256;7.534;2024-01-15T05:10:25;85733.25;;;0.32;100.00
43838;BME280;65998;46.256;7.534;2024-01-15T05:12:51;85730.53;;;0.26;100.00
43838;BME280;65998;46.256;7.534;2024-01-15T05:15:16;85725.09;;;0.20;100.00
43838;BME280;65998;46.256;7.534;2024-01-15T05:17:42;85734.53;;;0.13;100.00
43838;BME280;65998;46.256;7.534;2024-01-15T05:20:08;85731.78;;;0.05;100.00
43838;BME280;65998;46.256;7.534;2024-01-15T05:22:34;85730.47;;;0.14;100.00
43838;BME280;65998;46.256;7.534;2024-01-15T05:25:00;85724.38;;;0.09;100.00
43838;BME280;65998;46.256;7.534;2024-01-15T05:27:26;85722.28;;;-0.01;100.00
43838;BME280;65998;46.256;7.534;2024-01-15T05:29:52;85716.84;;;-0.07;100.00
43838;BME280;65998;46.256;7.534;2024-01-15T05:32:18;85724.28;;;-0.03;100.00
43838;BME280;65998;46.256;7.534;2024-01-15T05:34:44;85714.91;;;0.08;100.00
43838;BME280;65998;46.256;7.534;2024-01-15T05:37:10;85722.38;;;0.16;100.00
43838;BME280;65998;46.256;7.534;2024-01-15T05:39:35;85723.06;;;0.18;100.00
43838;BME280;65998;46.256;7.534;2024-01-15T05:42:01;85724.41;;;0.15;100.00
43838;BME280;65998;46.256;7.534;2024-01-15T05:44:27;85716.31;;;0.15;100.00
43838;BME280;65998;46.256;7.534;2024-01-15T05:46:53;85710.88;;;0.11;100.00
43838;BME280;65998;46.256;7.534;2024-01-15T05:49:19;85709.50;;;0.06;100.00
43838;BME280;65998;46.256;7.534;2024-01-15T05:51:45;85710.75;;;-0.11;100.00
43838;BME280;65998;46.256;7.534;2024-01-15T05:54:10;85706.66;;;-0.20;100.00
43838;BME280;65998;46.256;7.534;2024-01-15T05:56:36;85711.31;;;-0.27;100.00
43838;BME280;65998;46.256;7.534;2024-01-15T05:59:02;85707.25;;;-0.30;100.00
43838;BME280;65998;46.256;7.534;2024-01-15T06:01:28;85711.97;;;-0.33;100.00
43838;BME280;65998;46.256;7.534;2024-01-15T06:03:54;85697.06;;;-0.40;100.00
43838;BME280;65998;46.256;7.534;2024-01-15T06:06:20;85711.25;;;-0.39;100.00
43838;BME280;65998;46.256;7.534;2024-01-15T06:08:45;85703.81;;;-0.43;100.00
43838;BME280;65998;46.256;7.534;2024-01-15T06:11:11;85701.09;;;-0.47;100.00
43838;BME280;65998;46.256;7.534;2024-01-15T06:13:37;85709.84;;;-0.48;100.00
43838;BME280;65998;46.256;7.534;2024-01-15T06:16:12;85705.16;;;-0.42;100.00
43838;BME280;65998;46.256;7.534;2024-01-15T06:18:38;85704.44;;;-0.50;100.00
43838;BME280;65998;46.256;7.534;2024-01-15T06:21:04;85695.66;;;-0.53;100.00
43838;BME280;65998;46.256;7.534;2024-01-15T06:23:30;85710.50;;;-0.52;100.00
43838;BME280;65998;46.256;7.534;2024-01-15T06:25:56;85709.78;;;-0.58;100.00
43838;BME280;65998;46.256;7.534;2024-01-15T06:28:22;85707.06;;;-0.58;100.00
43838;BME280;65998;46.256;7.534;2024-01-15T06:30:48;85707.09;;;-0.54;100.00
43838;BME280;65998;46.256;7.534;2024-01-15T06:33:14;85715.19;;;-0.56;100.00
43838;BME280;65998;46.256;7.534;2024-01-15T06:35:40;85714.53;;;-0.53;100.00
43838;BME280;65998;46.256;7.534;2024-01-15T06:38:05;85707.13;;;-0.50;100.00
43838;BME280;65998;46.256;7.534;2024-01-15T06:40:31;85716.63;;;-0.41;100.00
43838;BME280;65998;46.256;7.534;2024-01-15T06:42:57;85712.59;;;-0.38;100.00
43838;BME280;65998;46.256;7.534;2024-01-15T06:45:23;85709.19;;;-0.45;100.00
43838;BME280;65998;46.256;7.534;2024-01-15T06:47:49;85713.25;;;-0.44;100.00
43838;BME280;65998;46.256;7.534;2024-01-15T06:50:15;85708.50;;;-0.45;100.00
43838;BME280;65998;46.256;7.534;2024-01-15T06:52:40;85714.63;;;-0.41;100.00
43838;BME280;65998;46.256;7.534;2024-01-15T06:55:07;85718.00;;;-0.38;100.00
43838;BME280;65998;46.256;7.534;2024-01-15T06:57:32;85720.69;;;-0.38;100.00
43838;BME280;65998;46.256;7.534;2024-01-15T06:59:58;85703.84;;;-0.37;100.00
43838;BME280;65998;46.256;7.534;2024-01-15T07:02:24;85697.78;;;-0.35;100.00
43838;BME280;65998;46.256;7.534;2024-01-15T07:04:50;85696.47;;;-0.30;100.00
43838;BME280;65998;46.256;7.534;2024-01-15T07:07:16;85695.81;;;-0.26;100.00
43838;BME280;65998;46.256;7.534;2024-01-15T07:09:42;85693.81;;;-0.20;100.00
43838;BME280;65998;46.256;7.534;2024-01-15T07:12:08;85697.91;;;-0.15;100.00
43838;BME280;65998;46.256;7.534;2024-01-15T07:14:34;85707.38;;;-0.10;100.00
43838;BME280;65998;46.256;7.534;2024-01-15T07:16:59;85698.03;;;0.04;100.00
43838;BME280;65998;46.256;7.534;2024-01-15T07:19:25;85695.34;;;0.12;100.00
43838;BME280;65998;46.256;7.534;2024-01-15T07:21:51;85703.50;;;0.18;100.00
43838;BME280;65998;46.256;7.534;2024-01-15T07:24:17;85708.22;;;0.21;100.00
43838;BME280;65998;46.256;7.534;2024-01-15T07:26:43;85708.94;;;0.30;100.00
43838;BME280;65998;46.256;7.534;2024-01-15T07:29:09;85709.63;;;0.32;100.00
43838;BME280;65998;46.256;7.534;2024-01-15T07:31:34;85717.75;;;0.37;100.00
43838;BME280;65998;46.256;7.534;2024-01-15T07:34:00;85716.41;;;0.38;100.00
43838;BME280;65998;46.256;7.534;2024-01-15T07:36:26;85717.78;;;0.41;100.00
43838;BME280;65998;46.256;7.534;2024-01-15T07:38:52;85719.81;;;0.44;100.00
43838;BME280;65998;46.256;7.534;2024-01-15T07:41:18;85727.94;;;0.52;100.00
43838;BME280;65998;46.256;7.534;2024-01-15T07:43:47;85725.25;;;0.54;100.00
43838;BME280;65998;46.256;7.534;2024-01-15T07:46:13;85727.94;;;0.54;100.00
43838;BME280;65998;46.256;7.534;2024-01-15T07:48:39;85730.63;;;0.50;100.00
43838;BME280;65998;46.256;7.534;2024-01-15T07:51:04;85730.00;;;0.58;100.00
43838;BME280;65998;46.256;7.534;2024-01-15T07:53:30;85726.63;;;0.63;100.00
43838;BME280;65998;46.256;7.534;2024-01-15T07:55:56;85733.41;;;0.67;100.00
43838;BME280;65998;46.256;7.534;2024-01-15T07:58:22;85719.88;;;0.67;100.00
43838;BME280;65998;46.256;7.534;2024-01-15T08:00:48;85721.94;;;0.70;100.00
43838;BME280;65998;46.256;7.534;2024-01-15T08:03:14;85730.03;;;0.72;100.00
43838;BME280;65998;46.256;7.534;2024-01-15T08:05:40;85730.06;;;0.80;100.00
43838;BME280;65998;46.256;7.534;2024-01-15T08:08:06;85724.00;;;0.86;100.00
43838;BME280;65998;46.256;7.534;2024-01-15T08:10:31;85728.75;;;0.89;100.00
43838;BME280;65998;46.256;7.534;2024-01-15T08:12:57;85734.19;;;1.04;100.00
43838;BME280;65998;46.256;7.534;2024-01-15T08:15:23;85739.63;;;1.14;100.00
43838;BME280;65998;46.256;7.534;2024-01-15T08:17:49;85728.16;;;1.23;100.00
43838;BME280;65998;46.256;7.534;2024-01-15T08:20:15;85733.56;;;1.34;100.00
43838;BME280;65998;46.256;7.534;2024-01-15T08:22:41;85729.53;;;1.43;100.00
43838;BME280;65998;46.256;7.534;2024-01-15T08:25:07;85737.66;;;1.51;100.00
43838;BME280;65998;46.256;7.534;2024-01-15T08:27:34;85736.97;;;1.56;100.00
43838;BME280;65998;46.256;7.534;2024-01-15T08:30:00;85743.75;;;1.51;100.00
43838;BME280;65998;46.256;7.534;2024-01-15T08:32:26;85744.41;;;1.50;100.00
43838;BME280;65998;46.256;7.534;2024-01-15T08:34:52;85739.00;;;1.48;100.00
43838;BME280;65998;46.256;7.534;2024-01-15T08:37:18;85736.28;;;1.58;100.00
43838;BME280;65998;46.256;7.534;2024-01-15T08:39:43;85736.97;;;1.63;100.00
43838;BME280;65998;46.256;7.534;2024-01-15T08:42:09;85736.28;;;1.62;100.00
43838;BME280;65998;46.256;7.534;2024-01-15T08:44:35;85728.19;;;1.66;100.00
43838;BME280;65998;46.256;7.534;2024-01-15T08:47:01;85724.13;;;1.69;100.00
43838;BME280;65998;46.256;7.534;2024-01-15T08:49:27;85730.88;;;1.72;100.00
43838;BME280;65998;46.256;7.534;2024-01-15T08:51:53;85726.81;;;1.53;100.00
43838;BME280;65998;46.256;7.534;2024-01-15T08:54:19;85734.25;;;1.58;100.00
43838;BME280;65998;46.256;7.534;2024-01-15T08:56:44;85726.81;;;1.51;100.00
43838;BME280;65998;46.256;7.534;2024-01-15T08:59:10;85739.00;;;1.42;100.00
43838;BME280;65998;46.256;7.534;2024-01-15T09:01:38;85739.00;;;1.52;100.00
43838;BME280;65998;46.256;7.534;2024-01-15T09:04:04;85728.84;;;1.44;100.00
43838;BME280;65998;46.256;7.534;2024-01-15T09:06:30;85719.38;;;1.55;100.00
43838;BME280;65998;46.256;7.534;2024-01-15T09:08:55;85727.50;;;1.59;100.00
43838;BME280;65998;46.256;7.534;2024-01-15T09:11:21;85718.69;;;1.67;100.00
43838;BME280;65998;46.256;7.534;2024-01-15T09:13:47;85726.81;;;1.69;100.00
43838;BME280;65998;46.256;7.534;2024-01-15T09:16:13;85741.03;;;1.62;100.00
43838;BME280;65998;46.256;7.534;2024-01-15T09:18:39;85726.16;;;1.63;100.00
43838;BME280;65998;46.256;7.534;2024-01-15T09:21:05;85734.28;;;1.69;100.00
43838;BME280;65998;46.256;7.534;2024-01-15T09:23:31;85731.56;;;1.83;100.00
43838;BME280;65998;46.256;7.534;2024-01-15T09:25:57;85731.53;;;1.97;100.00
43838;BME280;65998;46.256;7.534;2024-01-15T09:28:22;85730.88;;;2.11;100.00
43838;BME280;65998;46.256;7.534;2024-01-15T09:30:48;85724.75;;;2.22;100.00
43838;BME280;65998;46.256;7.534;2024-01-15T09:33:14;85727.47;;;2.24;100.00
43838;BME280;65998;46.256;7.534;2024-01-15T09:35:40;85725.44;;;2.23;100.00
43838;BME280;65998;46.256;7.534;2024-01-15T09:38:06;85717.97;;;2.23;100.00
43838;BME280;65998;46.256;7.534;2024-01-15T09:40:32;85709.84;;;2.17;100.00
43838;BME280;65998;46.256;7.534;2024-01-15T09:42:57;85711.22;;;2.18;100.00
43838;BME280;65998;46.256;7.534;2024-01-15T09:45:24;85711.22;;;2.18;100.00
43838;BME280;65998;46.256;7.534;2024-01-15T09:47:49;85703.75;;;2.27;100.00
43838;BME280;65998;46.256;7.534;2024-01-15T09:50:15;85705.75;;;2.31;100.00
43838;BME280;65998;46.256;7.534;2024-01-15T09:52:43;85714.56;;;2.37;100.00
43838;BME280;65998;46.256;7.534;2024-01-15T09:55:09;85708.44;;;2.45;100.00
43838;BME280;65998;46.256;7.534;2024-01-15T09:57:35;85718.63;;;2.34;100.00
43838;BME280;65998;46.256;7.534;2024-01-15T10:00:02;85731.50;;;2.32;100.00
43838;BME280;65998;46.256;7.534;2024-01-15T10:02:28;85727.47;;;2.24;100.00
43838;BME280;65998;46.256;7.534;2024-01-15T10:04:54;85722.06;;;2.20;100.00
43838;BME280;65998;46.256;7.534;2024-01-15T10:07:21;85720.00;;;2.31;100.00
43838;BME280;65998;46.256;7.534;2024-01-15T10:09:47;85709.13;;;2.39;100.00
43838;BME280;65998;46.256;7.534;2024-01-15T10:12:13;85716.63;;;2.22;100.00
43838;BME280;65998;46.256;7.534;2024-01-15T10:14:40;85686.16;;;2.10;100.00
43838;BME280;65998;46.256;7.534;2024-01-15T10:17:13;85690.91;;;2.15;100.00
43838;BME280;65998;46.256;7.534;2024-01-15T10:19:40;85684.09;;;2.20;100.00
43838;BME280;65998;46.256;7.534;2024-01-15T10:22:05;85686.13;;;2.30;100.00
43838;BME280;65998;46.256;7.534;2024-01-15T10:24:32;85680.66;;;2.36;100.00
43838;BME280;65998;46.256;7.534;2024-01-15T10:27:08;85669.06;;;2.56;100.00
43838;BME280;65998;46.256;7.534;2024-01-15T10:29:35;85661.59;;;2.63;100.00
43838;BME280;65998;46.256;7.534;2024-01-15T10:32:02;85664.16;;;2.91;100.00
43838;BME280;65998;46.256;7.534;2024-01-15T10:34:30;85668.81;;;3.15;100.00
43838;BME280;65998;46.256;7.534;2024-01-15T10:36:56;85662.69;;;3.16;100.00
43838;BME280;65998;46.256;7.534;2024-01-15T10:39:22;85649.19;;;2.98;100.00
43838;BME280;65998;46.256;7.534;2024-01-15T10:41:49;85653.22;;;3.05;100.00
43838;BME280;65998;46.256;7.534;2024-01-15T10:44:15;85656.66;;;3.00;100.00
43838;BME280;65998;46.256;7.534;2024-01-15T10:46:41;85665.22;;;3.45;99.21
43838;BME280;65998;46.256;7.534;2024-01-15T10:49:07;85667.16;;;3.57;95.32
43838;BME280;65998;46.256;7.534;2024-01-15T10:51:33;85660.41;;;3.51;90.49
43838;BME280;65998;46.256;7.534;2024-01-15T10:53:59;85665.91;;;3.41;93.27
43838;BME280;65998;46.256;7.534;2024-01-15T10:56:27;85653.03;;;3.40;94.43
43838;BME280;65998;46.256;7.534;2024-01-15T10:58:54;85656.25;;;3.63;87.85
43838;BME280;65998;46.256;7.534;2024-01-15T11:01:20;85648.66;;;3.77;80.90
43838;BME280;65998;46.256;7.534;2024-01-15T11:03:46;85637.72;;;3.85;82.60
43838;BME280;65998;46.256;7.534;2024-01-15T11:06:19;85648.38;;;4.08;83.14
43838;BME280;65998;46.256;7.534;2024-01-15T11:08:49;85632.81;;;4.02;78.64
43838;BME280;65998;46.256;7.534;2024-01-15T11:11:16;85633.41;;;4.11;78.96
43838;BME280;65998;46.256;7.534;2024-01-15T11:13:42;85630.06;;;4.06;72.58
43838;BME280;65998;46.256;7.534;2024-01-15T11:16:10;85633.28;;;4.25;73.73
43838;BME280;65998;46.256;7.534;2024-01-15T11:18:36;85651.03;;;4.18;80.16
43838;BME280;65998;46.256;7.534;2024-01-15T11:26:37;85627.69;;;4.41;75.06
43838;BME280;65998;46.256;7.534;2024-01-15T11:29:36;85619.66;;;4.29;74.19
43838;BME280;65998;46.256;7.534;2024-01-15T11:32:08;85641.22;;;4.45;74.04
43838;BME280;65998;46.256;7.534;2024-01-15T11:34:51;85648.16;;;4.34;84.96
43838;BME280;65998;46.256;7.534;2024-01-15T11:37:17;85643.16;;;3.85;95.10
43838;BME280;65998;46.256;7.534;2024-01-15T11:39:43;85656.91;;;3.65;98.81
43838;BME280;65998;46.256;7.534;2024-01-15T11:42:10;85657.75;;;3.45;98.18
43838;BME280;65998;46.256;7.534;2024-01-15T11:44:37;85658.50;;;3.34;100.00
43838;BME280;65998;46.256;7.534;2024-01-15T11:47:05;85657.09;;;3.41;97.58
43838;BME280;65998;46.256;7.534;2024-01-15T11:52:19;85647.59;;;3.40;99.96
43838;BME280;65998;46.256;7.534;2024-01-15T11:57:24;85644.88;;;3.40;100.00
43838;BME280;65998;46.256;7.534;2024-01-15T11:59:51;85636.13;;;3.29;95.09
43838;BME280;65998;46.256;7.534;2024-01-15T12:02:17;85637.38;;;3.44;91.09
43838;BME280;65998;46.256;7.534;2024-01-15T12:04:43;85640.78;;;3.45;88.06
43838;BME280;65998;46.256;7.534;2024-01-15T12:07:08;85640.00;;;3.59;89.10
43838;BME280;65998;46.256;7.534;2024-01-15T12:09:34;85648.75;;;3.65;88.36
43838;BME280;65998;46.256;7.534;2024-01-15T12:12:07;85654.22;;;3.63;89.71
43838;BME280;65998;46.256;7.534;2024-01-15T12:14:35;85649.56;;;3.47;89.01
43838;BME280;65998;46.256;7.534;2024-01-15T12:17:01;85652.28;;;3.49;85.66
43838;BME280;65998;46.256;7.534;2024-01-15T12:19:28;85647.53;;;3.50;85.35
43838;BME280;65998;46.256;7.534;2024-01-15T12:21:54;85640.72;;;3.51;84.98
43838;BME280;65998;46.256;7.534;2024-01-15T12:24:20;85642.81;;;3.44;83.71
43838;BME280;65998;46.256;7.534;2024-01-15T12:26:46;85642.72;;;3.55;82.67
43838;BME280;65998;46.256;7.534;2024-01-15T12:29:12;85648.09;;;3.65;82.89
43838;BME280;65998;46.256;7.534;2024-01-15T12:31:38;85633.78;;;3.70;82.65
43838;BME280;65998;46.256;7.534;2024-01-15T12:34:04;85628.94;;;3.79;83.52
43838;BME280;65998;46.256;7.534;2024-01-15T12:36:32;85632.22;;;3.92;88.89
43838;BME280;65998;46.256;7.534;2024-01-15T12:39:00;85618.84;;;3.69;93.91
43838;BME280;65998;46.256;7.534;2024-01-15T12:41:25;85610.91;;;3.45;96.44
43838;BME280;65998;46.256;7.534;2024-01-15T12:43:52;85623.25;;;3.28;100.00
43838;BME280;65998;46.256;7.534;2024-01-15T12:46:18;85600.31;;;3.06;100.00
43838;BME280;65998;46.256;7.534;2024-01-15T12:48:45;85621.31;;;3.10;92.42
43838;BME280;65998;46.256;7.534;2024-01-15T12:51:10;85607.00;;;3.22;80.86
43838;BME280;65998;46.256;7.534;2024-01-15T12:53:36;85618.31;;;3.50;81.15
43838;BME280;65998;46.256;7.534;2024-01-15T12:56:02;85617.53;;;3.64;75.66
43838;BME280;65998;46.256;7.534;2024-01-15T12:58:28;85616.75;;;3.76;79.67
43838;BME280;65998;46.256;7.534;2024-01-15T13:00:54;85605.66;;;4.00;73.24
43838;BME280;65998;46.256;7.534;2024-01-15T13:03:20;85606.91;;;4.11;71.90
43838;BME280;65998;46.256;7.534;2024-01-15T13:05:46;85596.53;;;4.28;73.68